Time;durP1;ratioP1;P1;durP2;ratioP2;P2;SDS_P1;SDS_P2;PMS_P1;PMS_P2;Temp;Humidity;BMP_temperature;BMP_pressure;BME280_temperature;BME280_humidity;BME280_pressure;Samples;Min_cycle;Max_cycle;Signal;HPM_P1;HPM_P2
2023/05/04 00:01:02;;;;;;;2.13;1.15;;;14.10;41.70;;;;;;5040247;28;20056;-44
2023/05/04 00:03:30;;;;;;;2.45;1.35;;;14.10;41.70;;;;;;5039021;28;20064;-44
2023/05/04 00:05:57;;;;;;;3.28;1.30;;;14.10;41.80;;;;;;5041810;28;20045;-45
2023/05/04 00:08:24;;;;;;;6.35;1.42;;;14.10;42.00;;;;;;5041929;28;20058;-45
2023/05/04 00:10:53;;;;;;;3.45;1.40;;;14.00;42.00;;;;;;5041590;28;20049;-47
2023/05/04 00:13:20;;;;;;;3.67;1.60;;;14.00;42.00;;;;;;5040437;28;20496;-44
2023/05/04 00:15:47;;;;;;;4.15;1.52;;;14.00;42.10;;;;;;5044106;28;20065;-45
2023/05/04 00:18:16;;;;;;;3.55;1.15;;;14.00;42.20;;;;;;5044685;28;20287;-45
2023/05/04 00:20:43;;;;;;;2.70;1.35;;;14.00;42.20;;;;;;5045244;28;20055;-45
2023/05/04 00:23:10;;;;;;;3.17;1.10;;;13.90;42.10;;;;;;5043987;28;20057;-47
2023/05/04 00:25:37;;;;;;;4.75;1.67;;;13.90;42.20;;;;;;5044273;28;20064;-45
2023/05/04 00:28:05;;;;;;;2.97;1.38;;;13.90;42.20;;;;;;5045186;28;20061;-45
2023/05/04 00:30:32;;;;;;;3.08;1.50;;;13.80;42.20;;;;;;5044167;28;20045;-45
2023/05/04 00:33:00;;;;;;;3.35;1.58;;;13.80;42.30;;;;;;5042285;28;20060;-49
2023/05/04 00:35:30;;;;;;;3.25;1.42;;;13.80;42.40;;;;;;5044440;28;20532;-44
2023/05/04 00:37:57;;;;;;;3.30;1.55;;;13.80;42.50;;;;;;5045161;28;20059;-44
2023/05/04 00:40:25;;;;;;;3.85;1.48;;;13.70;42.50;;;;;;5044199;28;20053;-47
2023/05/04 00:42:52;;;;;;;2.83;1.33;;;13.70;42.60;;;;;;5043045;28;20060;-47
2023/05/04 00:45:19;;;;;;;2.63;1.55;;;13.70;42.70;;;;;;5043460;28;20413;-45
2023/05/04 00:47:47;;;;;;;3.35;1.52;;;13.60;42.70;;;;;;5043431;28;20049;-45
2023/05/04 00:50:15;;;;;;;3.28;1.33;;;13.60;42.80;;;;;;5039817;28;20413;-45
2023/05/04 00:52:45;;;;;;;4.18;1.58;;;13.60;42.90;;;;;;5044756;28;20493;-46
2023/05/04 00:55:13;;;;;;;3.92;1.35;;;13.50;42.90;;;;;;5045084;28;20511;-45
2023/05/04 00:57:41;;;;;;;2.88;1.40;;;13.60;43.00;;;;;;5044812;28;20063;-47
2023/05/04 01:00:12;;;;;;;3.13;1.45;;;13.50;43.00;;;;;;5042242;28;22030;-45
2023/05/04 01:02:39;;;;;;;2.15;1.20;;;13.40;43.00;;;;;;5043655;23;20061;-51
2023/05/04 01:08:33;;;;;;;3.97;1.55;;;13.40;43.20;;;;;;5021859;28;20491;-48
2023/05/04 01:11:06;;;;;;;2.58;1.48;;;13.40;43.20;;;;;;5022903;28;20053;-45
2023/05/04 01:13:35;;;;;;;3.58;1.42;;;13.40;43.30;;;;;;5022805;28;20045;-49
2023/05/04 01:16:03;;;;;;;2.78;1.35;;;13.30;43.30;;;;;;5022055;28;20064;-51
2023/05/04 01:18:30;;;;;;;2.08;1.40;;;13.20;43.40;;;;;;5022664;28;20545;-48
2023/05/04 01:20:57;;;;;;;5.38;1.60;;;13.20;43.40;;;;;;5024219;28;20056;-44
2023/05/04 01:23:26;;;;;;;2.47;1.42;;;13.20;43.50;;;;;;5023904;28;20421;-44
2023/05/04 01:26:00;;;;;;;3.63;1.58;;;13.20;43.60;;;;;;5023129;28;20412;-44
2023/05/04 01:28:34;;;;;;;3.90;1.40;;;13.10;43.60;;;;;;5021061;28;20053;-45
2023/05/04 01:31:03;;;;;;;3.92;1.63;;;13.10;43.70;;;;;;5021764;28;20057;-50
2023/05/04 01:33:31;;;;;;;3.65;1.70;;;13.10;43.70;;;;;;5022908;28;20053;-45
2023/05/04 01:35:59;;;;;;;4.25;1.48;;;13.10;43.80;;;;;;5022403;28;20056;-48
2023/05/04 01:38:28;;;;;;;5.03;1.52;;;13.00;43.80;;;;;;5020490;28;20053;-45
2023/05/04 01:40:55;;;;;;;3.70;1.48;;;13.00;43.90;;;;;;5022232;28;20060;-46
2023/05/04 01:43:23;;;;;;;2.63;1.50;;;13.00;43.90;;;;;;5023122;28;20061;-44
2023/05/04 01:45:50;;;;;;;1.95;1.30;;;13.00;44.00;;;;;;5020951;28;20064;-51
2023/05/04 01:48:18;;;;;;;5.25;1.60;;;13.00;44.10;;;;;;5019119;28;20060;-44
2023/05/04 01:50:45;;;;;;;2.72;1.40;;;12.90;44.10;;;;;;5023190;28;20056;-52
2023/05/04 01:53:12;;;;;;;2.33;1.40;;;12.90;44.20;;;;;;5022635;28;20501;-47
2023/05/04 01:55:41;;;;;;;3.08;1.65;;;12.90;44.30;;;;;;5022827;28;20053;-48
2023/05/04 01:58:08;;;;;;;4.95;1.58;;;12.90;44.30;;;;;;5020344;28;20078;-44
2023/05/04 02:00:35;;;;;;;5.75;1.90;;;12.80;44.30;;;;;;5023002;28;20061;-44
2023/05/04 02:03:02;;;;;;;3.42;1.60;;;12.80;44.30;;;;;;5049661;28;20940;-50
2023/05/04 02:05:29;;;;;;;2.25;1.50;;;12.80;44.40;;;;;;5049466;28;20060;-49
2023/05/04 02:07:57;;;;;;;2.50;1.52;;;12.70;44.40;;;;;;5051249;28;20523;-51
2023/05/04 02:10:24;;;;;;;5.55;1.73;;;12.70;44.40;;;;;;5055117;28;20063;-47
2023/05/04 02:12:52;;;;;;;3.08;1.63;;;12.70;44.50;;;;;;5044267;28;20063;-47
2023/05/04 02:15:20;;;;;;;2.78;1.65;;;12.60;44.50;;;;;;5052172;28;20057;-48
2023/05/04 02:17:47;;;;;;;2.45;1.70;;;12.60;44.60;;;;;;5044512;28;20045;-47
2023/05/04 02:20:15;;;;;;;4.07;1.80;;;12.60;44.70;;;;;;5054078;28;20060;-50
2023/05/04 02:22:43;;;;;;;2.20;1.60;;;12.50;44.90;;;;;;5059571;28;20056;-47
2023/05/04 02:25:10;;;;;;;6.88;2.08;;;12.50;44.70;;;;;;5049760;28;20065;-48
2023/05/04 02:27:37;;;;;;;1.90;1.30;;;12.50;44.80;;;;;;5061771;28;20396;-47
2023/05/04 02:30:08;;;;;;;3.53;1.95;;;12.50;44.80;;;;;;5052894;28;20056;-47
2023/05/04 02:32:36;;;;;;;4.30;1.70;;;12.50;44.90;;;;;;5049169;28;20053;-49
2023/05/04 02:35:03;;;;;;;3.67;1.38;;;12.40;44.90;;;;;;5050146;28;20415;-47
2023/05/04 02:37:31;;;;;;;2.45;1.60;;;12.40;44.90;;;;;;5046416;28;20053;-49
2023/05/04 02:39:58;;;;;;;3.90;2.00;;;12.40;45.00;;;;;;5041706;28;20075;-47
2023/05/04 02:42:26;;;;;;;3.22;1.52;;;12.40;45.10;;;;;;5053623;28;20516;-47
2023/05/04 02:44:53;;;;;;;3.53;1.65;;;12.30;45.00;;;;;;5047573;28;20049;-48
2023/05/04 02:47:21;;;;;;;4.18;1.70;;;12.30;45.10;;;;;;5049944;28;20060;-48
2023/05/04 02:49:49;;;;;;;4.72;2.03;;;12.30;45.20;;;;;;5047456;28;20049;-47
2023/05/04 02:52:19;;;;;;;2.55;1.45;;;12.30;45.80;;;;;;5051397;28;20453;-50
2023/05/04 02:54:46;;;;;;;2.88;1.80;;;12.30;45.30;;;;;;5047581;28;20057;-46
2023/05/04 02:57:13;;;;;;;4.00;1.70;;;12.20;45.30;;;;;;5045749;28;20067;-47
2023/05/04 02:59:41;;;;;;;4.15;2.15;;;12.20;45.30;;;;;;5045043;28;20068;-46
2023/05/04 03:02:08;;;;;;;4.15;1.95;;;12.20;45.40;;;;;;5042348;28;20365;-48
2023/05/04 03:04:36;;;;;;;4.00;1.65;;;12.20;45.50;;;;;;5037783;28;20061;-44
2023/05/04 03:07:04;;;;;;;4.22;2.00;;;12.20;45.50;;;;;;5041026;28;20522;-43
2023/05/04 03:09:31;;;;;;;2.45;1.75;;;12.20;45.60;;;;;;5042386;28;20080;-46
2023/05/04 03:11:58;;;;;;;4.97;2.10;;;12.10;45.60;;;;;;5040397;28;20485;-45
2023/05/04 03:14:25;;;;;;;5.18;1.67;;;12.10;45.60;;;;;;5039341;28;20079;-44
2023/05/04 03:16:53;;;;;;;3.72;1.67;;;12.10;45.60;;;;;;5036572;28;20064;-47
2023/05/04 03:19:20;;;;;;;2.75;1.60;;;12.10;45.70;;;;;;5037765;28;20057;-49
2023/05/04 03:21:49;;;;;;;5.30;1.55;;;12.10;45.80;;;;;;5040275;28;20428;-45
2023/05/04 03:24:18;;;;;;;4.65;2.22;;;12.00;45.80;;;;;;5040916;28;20065;-44
2023/05/04 03:26:46;;;;;;;2.92;1.83;;;12.00;45.80;;;;;;5041537;28;20056;-48
2023/05/04 03:29:15;;;;;;;2.15;1.65;;;12.00;45.90;;;;;;5035006;28;20072;-45
2023/05/04 03:31:43;;;;;;;3.30;1.90;;;12.00;45.90;;;;;;5037146;28;20049;-45
2023/05/04 03:34:11;;;;;;;4.47;1.85;;;11.90;45.90;;;;;;5040372;28;20492;-46
2023/05/04 03:36:38;;;;;;;8.10;2.20;;;12.00;46.00;;;;;;5036813;28;20060;-45
2023/05/04 03:39:07;;;;;;;4.93;2.28;;;11.90;46.00;;;;;;5037328;28;20057;-45
2023/05/04 03:41:37;;;;;;;2.28;1.70;;;11.90;46.10;;;;;;5039514;28;20053;-44
2023/05/04 03:44:10;;;;;;;2.15;1.55;;;11.90;46.10;;;;;;5040499;28;20079;-46
2023/05/04 03:46:37;;;;;;;6.03;2.15;;;11.90;46.20;;;;;;5038280;28;20060;-45
2023/05/04 03:49:04;;;;;;;4.55;1.83;;;11.90;46.20;;;;;;5037975;28;20052;-45
2023/05/04 03:51:32;;;;;;;5.50;1.98;;;11.80;46.20;;;;;;5040084;28;20057;-44
2023/05/04 03:53:59;;;;;;;4.00;1.88;;;11.80;46.20;;;;;;5040794;28;20049;-46
2023/05/04 03:56:28;;;;;;;3.05;2.00;;;11.80;46.30;;;;;;5038866;28;20060;-44
2023/05/04 03:58:55;;;;;;;3.78;1.67;;;11.80;46.40;;;;;;5040221;28;20056;-44
2023/05/04 04:01:22;;;;;;;4.18;1.75;;;11.80;46.40;;;;;;5038879;28;20421;-49
2023/05/04 04:03:50;;;;;;;2.85;1.88;;;11.80;46.40;;;;;;5040228;28;20060;-48
2023/05/04 04:06:17;;;;;;;3.97;2.13;;;11.80;46.50;;;;;;5037084;28;20049;-45
2023/05/04 04:08:45;;;;;;;5.70;2.58;;;11.80;46.50;;;;;;5041441;28;20064;-48
2023/05/04 04:11:12;;;;;;;5.78;1.88;;;11.80;46.50;;;;;;5039181;28;20419;-44
2023/05/04 04:13:41;;;;;;;3.13;1.60;;;11.80;46.60;;;;;;5040189;28;20052;-45
2023/05/04 04:16:08;;;;;;;7.85;2.00;;;11.80;47.20;;;;;;5037218;28;20056;-48
2023/05/04 04:18:35;;;;;;;35.25;12.60;;;11.70;46.60;;;;;;5037655;28;20053;-44
2023/05/04 04:21:02;;;;;;;53.78;23.17;;;11.70;46.70;;;;;;5041539;28;20057;-47
2023/05/04 04:23:29;;;;;;;31.35;12.95;;;11.70;47.20;;;;;;5040037;28;20048;-44
2023/05/04 04:25:57;;;;;;;11.93;5.32;;;11.70;46.70;;;;;;5037217;28;20485;-44
2023/05/04 04:28:24;;;;;;;6.55;2.92;;;11.70;46.80;;;;;;5040835;28;20060;-44
2023/05/04 04:30:53;;;;;;;5.88;2.30;;;11.70;46.80;;;;;;5037143;28;20053;-47
2023/05/04 04:33:20;;;;;;;5.13;2.03;;;11.70;46.80;;;;;;5040546;28;20401;-47
2023/05/04 04:35:48;;;;;;;3.78;1.80;;;11.70;46.80;;;;;;5041587;28;20049;-46
2023/05/04 04:38:15;;;;;;;4.22;2.15;;;11.70;47.40;;;;;;5040638;28;20049;-44
2023/05/04 04:40:42;;;;;;;4.43;1.80;;;11.70;46.90;;;;;;5038284;28;20061;-43
2023/05/04 04:43:10;;;;;;;3.47;1.80;;;11.70;46.90;;;;;;5038649;28;20502;-44
2023/05/04 04:45:38;;;;;;;3.50;2.55;;;11.80;47.00;;;;;;5036017;28;20496;-45
2023/05/04 04:48:07;;;;;;;5.30;2.55;;;11.80;47.00;;;;;;5040415;28;20060;-45
2023/05/04 04:50:37;;;;;;;4.05;2.42;;;11.80;47.10;;;;;;5039062;28;20056;-45
2023/05/04 04:53:04;;;;;;;4.95;2.17;;;11.80;47.20;;;;;;5038754;28;20064;-52
2023/05/04 04:55:33;;;;;;;5.03;2.60;;;11.80;47.20;;;;;;5033072;28;20469;-50
2023/05/04 04:58:00;;;;;;;5.32;1.70;;;11.80;47.30;;;;;;5040289;28;20411;-45
2023/05/04 05:00:28;;;;;;;3.70;2.28;;;11.80;47.30;;;;;;5041951;28;20057;-46
2023/05/04 05:02:55;;;;;;;3.85;2.10;;;11.80;47.30;;;;;;5044493;28;20068;-45
2023/05/04 05:05:23;;;;;;;7.30;2.35;;;11.80;47.30;;;;;;5044554;28;20068;-44
2023/05/04 05:07:51;;;;;;;4.03;2.08;;;11.80;47.40;;;;;;5044015;28;20057;-47
2023/05/04 05:10:19;;;;;;;2.15;1.90;;;11.80;47.40;;;;;;5042823;28;20060;-46
2023/05/04 05:12:47;;;;;;;4.47;1.88;;;11.80;47.40;;;;;;5041935;28;21338;-48
2023/05/04 05:15:14;;;;;;;2.38;1.80;;;11.80;47.40;;;;;;5038628;28;20059;-46
2023/05/04 05:17:41;;;;;;;4.85;2.10;;;11.90;47.60;;;;;;5042539;28;20053;-44
2023/05/04 05:20:10;;;;;;;4.22;2.15;;;11.90;47.60;;;;;;5038034;28;20064;-46
2023/05/04 05:22:39;;;;;;;4.03;2.00;;;11.90;47.70;;;;;;5039897;28;20056;-44
2023/05/04 05:25:07;;;;;;;4.93;2.55;;;11.90;47.80;;;;;;5039321;28;20048;-50
2023/05/04 05:27:35;;;;;;;4.40;2.40;;;11.90;47.80;;;;;;5041994;28;20512;-44
2023/05/04 05:30:04;;;;;;;3.50;2.30;;;11.90;47.80;;;;;;5035950;28;20492;-48
2023/05/04 05:32:31;;;;;;;4.22;2.30;;;11.90;47.90;;;;;;5037984;28;20405;-46
2023/05/04 05:34:58;;;;;;;6.00;2.10;;;12.00;48.00;;;;;;5037916;28;20072;-46
2023/05/04 05:37:26;;;;;;;3.15;2.20;;;12.00;48.00;;;;;;5037512;28;20519;-47
2023/05/04 05:39:55;;;;;;;5.63;2.30;;;12.00;48.10;;;;;;5035992;28;20056;-45
2023/05/04 05:42:22;;;;;;;3.92;2.10;;;12.00;48.20;;;;;;5041687;28;20064;-46
2023/05/04 05:44:49;;;;;;;5.72;1.90;;;12.10;48.20;;;;;;5034220;28;20052;-45
2023/05/04 05:47:17;;;;;;;4.20;2.42;;;12.10;48.30;;;;;;5041503;28;20053;-45
2023/05/04 05:49:44;;;;;;;5.68;2.50;;;12.10;48.30;;;;;;5042120;28;20056;-48
2023/05/04 05:52:11;;;;;;;3.72;2.03;;;12.20;48.40;;;;;;5039953;28;20052;-49
2023/05/04 05:54:39;;;;;;;5.50;2.20;;;12.20;48.40;;;;;;5042160;28;20377;-49
2023/05/04 05:57:07;;;;;;;3.67;2.30;;;12.30;48.50;;;;;;5041965;28;20060;-46
2023/05/04 05:59:34;;;;;;;3.05;2.10;;;12.30;48.50;;;;;;5040266;28;20609;-47
2023/05/04 06:02:01;;;;;;;5.38;2.10;;;12.40;48.50;;;;;;5040178;28;20060;-45
2023/05/04 06:04:29;;;;;;;4.47;2.40;;;12.50;48.50;;;;;;5042945;28;20052;-47
2023/05/04 06:06:56;;;;;;;3.63;2.17;;;12.60;48.50;;;;;;5042569;28;20059;-45
2023/05/04 06:09:23;;;;;;;9.27;2.92;;;12.70;48.60;;;;;;5042618;28;20626;-46
2023/05/04 06:11:51;;;;;;;5.50;2.60;;;12.70;48.80;;;;;;5041440;28;20057;-44
2023/05/04 06:14:19;;;;;;;3.55;2.40;;;12.80;48.80;;;;;;5039863;28;20049;-45
2023/05/04 06:16:46;;;;;;;5.75;2.33;;;12.90;48.90;;;;;;5038059;28;20041;-45
2023/05/04 06:19:13;;;;;;;5.10;2.30;;;13.00;48.90;;;;;;5038146;28;20535;-49
2023/05/04 06:21:41;;;;;;;4.22;2.60;;;13.10;49.10;;;;;;5039452;28;20053;-46
2023/05/04 06:24:08;;;;;;;4.25;2.65;;;13.20;49.00;;;;;;5042047;28;20052;-44
2023/05/04 06:26:35;;;;;;;6.22;2.72;;;13.20;48.90;;;;;;5042745;28;20492;-45
2023/05/04 06:29:02;;;;;;;6.45;2.25;;;13.30;49.00;;;;;;5038826;28;20056;-45
2023/05/04 06:31:31;;;;;;;5.60;2.20;;;13.40;49.00;;;;;;5040349;28;20489;-45
2023/05/04 06:33:58;;;;;;;4.30;2.15;;;13.50;48.90;;;;;;5042925;28;20049;-44
2023/05/04 06:36:26;;;;;;;8.02;3.00;;;13.60;48.80;;;;;;5041028;28;20060;-50
2023/05/04 06:38:54;;;;;;;8.60;2.90;;;13.60;48.90;;;;;;5040749;28;20053;-49
2023/05/04 06:41:21;;;;;;;5.28;2.55;;;13.70;48.90;;;;;;5041277;28;20507;-45
2023/05/04 06:43:48;;;;;;;8.40;2.67;;;13.80;48.90;;;;;;5039438;28;20056;-47
2023/05/04 06:46:16;;;;;;;4.85;2.50;;;13.90;48.80;;;;;;5036945;28;20059;-49
2023/05/04 06:48:44;;;;;;;9.35;2.92;;;13.90;48.70;;;;;;5040893;28;20056;-47
2023/05/04 06:51:12;;;;;;;5.38;2.70;;;14.00;48.60;;;;;;5042918;28;20492;-50
2023/05/04 06:53:39;;;;;;;4.80;2.67;;;14.10;48.60;;;;;;5038234;28;20048;-48
2023/05/04 06:56:07;;;;;;;111.43;42.78;;;14.20;48.60;;;;;;5038907;28;20045;-51
2023/05/04 06:58:35;;;;;;;26.73;10.00;;;14.20;48.50;;;;;;5038610;28;20065;-48
2023/05/04 07:01:02;;;;;;;7.97;4.20;;;14.30;48.40;;;;;;5038784;28;20072;-48
2023/05/04 07:03:29;;;;;;;8.40;3.45;;;14.40;48.40;;;;;;5041465;28;20060;-51
2023/05/04 07:05:58;;;;;;;8.48;3.05;;;14.50;48.20;;;;;;5038863;28;20428;-51
2023/05/04 07:08:26;;;;;;;8.82;3.53;;;14.50;48.00;;;;;;5036357;28;20053;-52
2023/05/04 07:10:53;;;;;;;5.93;2.88;;;14.60;48.10;;;;;;5038898;28;20064;-52
2023/05/04 07:13:21;;;;;;;8.48;3.38;;;14.70;48.10;;;;;;5038948;28;20053;-49
2023/05/04 07:15:48;;;;;;;5.60;3.05;;;14.70;48.00;;;;;;5038997;28;20384;-49
2023/05/04 07:18:15;;;;;;;11.25;3.38;;;14.80;47.90;;;;;;5041371;28;20056;-50
2023/05/04 07:20:42;;;;;;;5.38;2.90;;;14.90;47.80;;;;;;5040576;28;20060;-47
2023/05/04 07:23:11;;;;;;;7.28;2.90;;;15.00;47.80;;;;;;5036681;28;20077;-49
2023/05/04 07:25:38;;;;;;;8.43;2.75;;;15.00;47.70;;;;;;5040606;28;20052;-50
2023/05/04 07:28:05;;;;;;;7.55;3.63;;;15.10;47.60;;;;;;5035656;28;20057;-47
2023/05/04 07:30:33;;;;;;;5.97;3.30;;;15.20;47.60;;;;;;5040344;28;20057;-50
2023/05/04 07:33:00;;;;;;;7.80;3.25;;;15.20;47.40;;;;;;5041306;28;20355;-49
2023/05/04 07:35:27;;;;;;;9.70;3.53;;;15.30;47.40;;;;;;5040968;28;20496;-51
2023/05/04 07:37:54;;;;;;;7.97;3.13;;;15.40;47.30;;;;;;5039853;28;20120;-51
2023/05/04 07:40:24;;;;;;;5.13;3.17;;;15.40;47.70;;;;;;5040121;28;20390;-47
2023/05/04 07:42:51;;;;;;;5.03;2.90;;;15.50;47.60;;;;;;5038490;28;20067;-49
2023/05/04 07:45:18;;;;;;;7.55;2.78;;;15.50;47.50;;;;;;5037901;28;20045;-51
2023/05/04 07:47:46;;;;;;;6.03;2.85;;;15.60;47.50;;;;;;5040032;28;20056;-48
2023/05/04 07:50:14;;;;;;;5.90;2.97;;;15.70;47.40;;;;;;5038950;28;20049;-51
2023/05/04 07:52:41;;;;;;;9.05;4.65;;;15.70;47.20;;;;;;5039693;28;20057;-49
2023/05/04 07:55:09;;;;;;;11.00;5.28;;;15.80;47.20;;;;;;5037697;28;20067;-49
2023/05/04 07:57:38;;;;;;;8.43;3.10;;;15.90;47.30;;;;;;5039549;28;20411;-48
2023/05/04 08:00:07;;;;;;;6.15;3.38;;;16.00;47.10;;;;;;5037037;28;20053;-51
2023/05/04 08:02:34;;;;;;;10.02;3.25;;;16.00;47.40;;;;;;5039069;28;20596;-48
2023/05/04 08:05:02;;;;;;;5.53;3.65;;;16.10;47.30;;;;;;5034394;28;20798;-50
2023/05/04 08:07:29;;;;;;;9.52;3.83;;;16.20;47.30;;;;;;5037626;28;20397;-49
2023/05/04 08:09:56;;;;;;;5.80;3.53;;;16.30;47.10;;;;;;5037058;28;20053;-49
2023/05/04 08:12:25;;;;;;;6.28;3.25;;;16.40;46.90;;;;;;5038685;28;20053;-50
2023/05/04 08:14:54;;;;;;;11.63;3.17;;;16.40;47.30;;;;;;5035073;28;20499;-51
2023/05/04 08:17:21;;;;;;;13.32;3.25;;;16.50;46.80;;;;;;5037873;28;20049;-51
2023/05/04 08:19:49;;;;;;;7.50;3.42;;;16.60;46.90;;;;;;5039852;28;20052;-52
2023/05/04 08:22:17;;;;;;;5.03;3.30;;;16.70;46.70;;;;;;5040560;28;20060;-50
2023/05/04 08:24:46;;;;;;;6.63;3.17;;;16.80;46.60;;;;;;5033682;28;20060;-48
2023/05/04 08:27:14;;;;;;;9.90;3.60;;;16.90;46.40;;;;;;5036494;28;20057;-49
2023/05/04 08:29:41;;;;;;;6.53;3.55;;;16.90;46.40;;;;;;5034612;28;20056;-49
2023/05/04 08:32:10;;;;;;;7.82;2.97;;;17.00;46.20;;;;;;5038913;28;20057;-47
2023/05/04 08:34:37;;;;;;;4.93;2.90;;;17.10;46.40;;;;;;5040839;28;20049;-48
2023/05/04 08:37:04;;;;;;;7.60;3.80;;;17.20;46.50;;;;;;5044241;28;20052;-49
2023/05/04 08:39:32;;;;;;;6.90;3.90;;;17.30;46.50;;;;;;5043161;28;20563;-53
2023/05/04 08:41:59;;;;;;;6.55;3.38;;;17.40;46.30;;;;;;5044989;28;20057;-48
2023/05/04 08:44:26;;;;;;;7.25;3.50;;;17.40;46.20;;;;;;5040148;28;20068;-49
2023/05/04 08:46:54;;;;;;;4.70;3.20;;;17.50;46.20;;;;;;5041169;28;20580;-48
2023/05/04 08:49:24;;;;;;;5.30;3.15;;;17.60;46.20;;;;;;5042034;28;20053;-49
2023/05/04 08:51:52;;;;;;;7.13;4.00;;;17.60;46.40;;;;;;5044285;28;20053;-49
2023/05/04 08:54:20;;;;;;;6.00;3.85;;;17.70;46.30;;;;;;5040880;28;20048;-51
2023/05/04 08:56:48;;;;;;;6.10;3.35;;;17.80;45.90;;;;;;5038895;28;20380;-48
2023/05/04 08:59:19;;;;;;;7.20;4.00;;;17.80;45.90;;;;;;5040781;28;20060;-53
2023/05/04 09:01:49;;;;;;;6.72;3.63;;;17.90;45.90;;;;;;5039571;28;20064;-54
2023/05/04 09:04:18;;;;;;;6.53;3.63;;;17.90;45.90;;;;;;5041552;28;20061;-51
2023/05/04 09:06:47;;;;;;;7.28;4.00;;;18.00;45.70;;;;;;5042382;28;20052;-49
2023/05/04 09:09:14;;;;;;;9.63;3.85;;;18.10;45.50;;;;;;5041680;28;20049;-53
2023/05/04 09:11:43;;;;;;;9.43;3.65;;;18.10;45.30;;;;;;5040966;28;20048;-45
2023/05/04 09:14:10;;;;;;;16.20;5.20;;;18.20;45.00;;;;;;5039651;28;20519;-46
2023/05/04 09:16:38;;;;;;;9.20;3.83;;;18.30;45.10;;;;;;5041562;28;20056;-45
2023/05/04 09:19:17;;;;;;;11.15;3.97;;;18.30;45.20;;;;;;5042288;28;20052;-46
2023/05/04 09:21:46;;;;;;;7.97;4.03;;;18.40;44.60;;;;;;5041905;28;20061;-46
2023/05/04 09:24:13;;;;;;;8.98;3.78;;;18.50;44.50;;;;;;5041350;28;20056;-46
2023/05/04 09:26:40;;;;;;;6.20;3.15;;;18.50;44.50;;;;;;5037955;28;20052;-45
2023/05/04 09:29:12;;;;;;;8.27;3.70;;;18.60;44.80;;;;;;5039360;28;20495;-46
2023/05/04 09:31:43;;;;;;;7.70;2.75;;;18.70;44.20;;;;;;5040606;28;20523;-45
2023/05/04 09:34:12;;;;;;;5.82;2.70;;;18.70;44.10;;;;;;5040276;28;20067;-45
2023/05/04 09:36:40;;;;;;;5.85;2.38;;;18.80;44.10;;;;;;5042933;28;20057;-45
2023/05/04 09:39:13;;;;;;;5.13;2.55;;;18.90;44.10;;;;;;5040470;28;20049;-47
2023/05/04 09:41:41;;;;;;;7.40;2.40;;;18.90;43.80;;;;;;5042412;28;20515;-48
2023/05/04 09:44:17;;;;;;;7.30;2.65;;;19.00;43.90;;;;;;5036777;28;20048;-48
2023/05/04 09:46:53;;;;;;;4.90;2.90;;;19.00;43.50;;;;;;5042640;28;20351;-47
2023/05/04 09:49:30;;;;;;;5.57;2.38;;;19.10;43.10;;;;;;5038492;28;20048;-51
2023/05/04 09:52:00;;;;;;;6.70;2.80;;;19.10;43.30;;;;;;5042232;28;20053;-48
2023/05/04 09:54:31;;;;;;;5.55;2.83;;;19.20;43.20;;;;;;5042814;28;20076;-47
2023/05/04 09:57:10;;;;;;;6.53;2.63;;;19.20;43.00;;;;;;5042958;28;20401;-48
2023/05/04 09:59:38;;;;;;;6.05;2.78;;;19.30;42.70;;;;;;5041957;28;20065;-46
2023/05/04 10:02:05;;;;;;;6.38;2.53;;;19.40;42.30;;;;;;5038800;28;20057;-48
2023/05/04 10:04:33;;;;;;;5.43;2.80;;;19.40;41.90;;;;;;5040769;28;20493;-46
2023/05/04 10:07:03;;;;;;;4.75;1.90;;;19.40;41.30;;;;;;5041746;28;20064;-50
2023/05/04 10:09:33;;;;;;;4.38;2.50;;;19.50;41.10;;;;;;5041095;28;20053;-51
2023/05/04 10:12:04;;;;;;;7.25;2.80;;;19.50;40.80;;;;;;5041251;28;20057;-49
2023/05/04 10:14:31;;;;;;;6.38;2.38;;;19.60;40.70;;;;;;5039925;28;20057;-47
2023/05/04 10:17:08;;;;;;;6.72;2.53;;;19.60;40.40;;;;;;5039822;28;20048;-47
2023/05/04 10:19:47;;;;;;;5.50;2.63;;;19.60;40.10;;;;;;5041493;28;20056;-47
2023/05/04 10:22:28;;;;;;;4.95;2.05;;;19.60;40.10;;;;;;5040941;28;20052;-48
2023/05/04 10:25:36;;;;;;;2.72;2.08;;;19.70;40.10;;;;;;5034264;28;20488;-47
2023/05/04 10:28:15;;;;;;;6.72;2.33;;;19.70;40.40;;;;;;5039098;28;20072;-48
2023/05/04 10:30:42;;;;;;;5.10;2.28;;;19.80;40.50;;;;;;5039534;28;20081;-46
2023/05/04 10:33:10;;;;;;;14.20;2.90;;;19.90;40.40;;;;;;5038589;28;20534;-49
2023/05/04 10:35:37;;;;;;;8.43;2.60;;;19.90;40.10;;;;;;5041488;28;20416;-49
2023/05/04 10:38:05;;;;;;;5.22;2.20;;;20.00;40.20;;;;;;5040422;28;20052;-49
2023/05/04 10:40:36;;;;;;;4.28;2.20;;;20.00;40.30;;;;;;5041313;28;20056;-51
2023/05/04 10:43:04;;;;;;;6.88;2.35;;;20.10;40.10;;;;;;5039301;28;20053;-46
2023/05/04 10:45:38;;;;;;;3.67;2.15;;;20.10;39.80;;;;;;5040130;28;20049;-52
2023/05/04 10:48:06;;;;;;;;;;;20.10;39.90;;;;;;5040003;28;20511;-49
2023/05/04 10:50:43;;;;;;;5.13;2.30;;;20.20;40.40;;;;;;5041470;28;19920;-47
2023/05/04 10:53:11;;;;;;;4.47;2.45;;;20.20;39.60;;;;;;5039265;28;20053;-54
2023/05/04 10:55:43;;;;;;;5.50;2.58;;;20.20;39.70;;;;;;5041124;28;20413;-49
2023/05/04 10:58:15;;;;;;;6.45;2.58;;;20.20;39.50;;;;;;5040251;28;20060;-52
2023/05/04 11:00:44;;;;;;;4.53;2.42;;;20.20;39.70;;;;;;5039118;28;20472;-52
2023/05/04 11:03:12;;;;;;;3.88;2.28;;;20.20;39.90;;;;;;5041944;28;20064;-47
2023/05/04 11:05:44;;;;;;;4.78;2.30;;;20.20;39.90;;;;;;5039419;28;20049;-46
2023/05/04 11:08:15;;;;;;;6.13;2.03;;;20.20;39.30;;;;;;5039908;28;20515;-47
2023/05/04 11:10:46;;;;;;;8.35;2.38;;;20.30;39.60;;;;;;5039700;28;20052;-47
2023/05/04 11:13:14;;;;;;;5.68;2.40;;;20.30;39.40;;;;;;5041700;28;20057;-47
2023/05/04 11:15:50;;;;;;;5.65;2.35;;;20.30;39.50;;;;;;5037766;28;20064;-48
2023/05/04 11:18:27;;;;;;;4.80;2.47;;;20.40;39.20;;;;;;5039996;28;21193;-47
2023/05/04 11:20:55;;;;;;;4.32;2.35;;;20.40;39.20;;;;;;5038901;28;20049;-52
2023/05/04 11:23:23;;;;;;;5.35;2.15;;;20.50;39.20;;;;;;5039664;28;20520;-49
2023/05/04 11:25:52;;;;;;;15.63;2.58;;;20.50;39.20;;;;;;5040553;28;20048;-48
2023/05/04 11:28:19;;;;;;;3.47;2.05;;;20.50;39.30;;;;;;5041999;28;20064;-48
2023/05/04 11:30:47;;;;;;;4.43;2.40;;;20.50;39.30;;;;;;5037061;28;20505;-49
2023/05/04 11:33:16;;;;;;;4.53;2.00;;;20.60;39.10;;;;;;5040195;28;20044;-54
2023/05/04 11:35:44;;;;;;;5.95;2.30;;;20.60;39.10;;;;;;5041598;28;20052;-48
2023/05/04 11:38:17;;;;;;;6.88;2.20;;;20.70;39.20;;;;;;5039811;28;20132;-52
2023/05/04 11:40:48;;;;;;;4.75;2.47;;;20.70;39.00;;;;;;5038418;28;20057;-52
2023/05/04 11:43:17;;;;;;;3.20;2.03;;;20.80;38.50;;;;;;5038932;28;20401;-48
2023/05/04 11:45:48;;;;;;;3.40;1.98;;;20.80;38.80;;;;;;5037491;28;20430;-50
2023/05/04 11:48:16;;;;;;;6.60;2.50;;;20.80;38.90;;;;;;5040109;28;20501;-48
2023/05/04 11:50:46;;;;;;;4.45;2.30;;;20.90;38.70;;;;;;5039636;28;20065;-48
2023/05/04 11:53:14;;;;;;;6.28;2.35;;;20.90;38.90;;;;;;5039041;28;20053;-51
2023/05/04 11:55:42;;;;;;;6.97;2.75;;;20.90;38.70;;;;;;5035355;28;20065;-54
2023/05/04 11:58:11;;;;;;;5.32;2.38;;;21.00;38.80;;;;;;5038997;28;20064;-48
2023/05/04 12:00:40;;;;;;;6.15;1.90;;;21.00;38.60;;;;;;5038903;28;20053;-47
2023/05/04 12:03:11;;;;;;;4.25;2.20;;;21.10;38.50;;;;;;5040372;28;20056;-51
2023/05/04 12:05:45;;;;;;;4.60;2.33;;;21.10;38.60;;;;;;5039024;28;20072;-47
2023/05/04 12:08:22;;;;;;;2.88;1.85;;;21.20;38.30;;;;;;5038712;28;20052;-46
2023/05/04 12:10:50;;;;;;;4.88;2.25;;;21.20;37.70;;;;;;5039754;28;20057;-47
2023/05/04 12:13:17;;;;;;;12.43;2.60;;;21.30;37.80;;;;;;5038308;28;20049;-46
2023/05/04 12:15:46;;;;;;;4.35;2.28;;;21.30;37.80;;;;;;5038385;28;20404;-48
2023/05/04 12:18:28;;;;;;;6.63;2.10;;;21.40;37.50;;;;;;5040267;28;20052;-50
2023/05/04 12:20:55;;;;;;;6.70;2.08;;;21.40;37.20;;;;;;5040067;28;20061;-49
2023/05/04 12:23:22;;;;;;;3.45;2.10;;;21.40;37.40;;;;;;5039656;28;20485;-45
2023/05/04 12:25:51;;;;;;;4.22;2.05;;;21.50;37.10;;;;;;5033809;28;20140;-45
2023/05/04 12:28:19;;;;;;;5.80;1.65;;;21.50;37.00;;;;;;5034635;28;20058;-49
2023/05/04 12:30:48;;;;;;;3.63;2.17;;;21.60;36.90;;;;;;5035700;28;20536;-46
2023/05/04 12:33:15;;;;;;;4.80;2.10;;;21.60;36.50;;;;;;5040262;28;20060;-48
2023/05/04 12:35:43;;;;;;;4.95;2.17;;;21.70;36.40;;;;;;5039840;28;20457;-47
2023/05/04 12:38:10;;;;;;;5.22;1.98;;;21.70;36.60;;;;;;5039183;28;20400;-46
2023/05/04 12:40:37;;;;;;;4.18;2.20;;;21.70;36.30;;;;;;5040691;28;20053;-49
2023/05/04 12:43:05;;;;;;;4.82;1.90;;;21.80;36.20;;;;;;5038113;28;20148;-46
2023/05/04 12:45:33;;;;;;;3.50;1.77;;;21.80;36.10;;;;;;5037583;28;20396;-48
2023/05/04 12:48:02;;;;;;;3.38;2.00;;;21.80;35.80;;;;;;5038943;28;20057;-45
2023/05/04 12:50:29;;;;;;;4.78;2.08;;;21.80;36.00;;;;;;5038275;28;20057;-47
2023/05/04 12:52:56;;;;;;;7.28;2.00;;;21.80;35.90;;;;;;5037568;28;20064;-47
2023/05/04 12:55:23;;;;;;;3.85;1.65;;;21.90;35.30;;;;;;5039196;28;20977;-47